Hamnavoe — VSTY7 — position and weather

sailwx.info

Track history (hours):
 
Tides and Currents Weather Stations Pressure Air Temp Water Temp Dewpoint Dewpoint Depression Visibility Wind Speed Wind Dir Waves Ship Positions

Hamnavoe

Operator: NorthLink Orkey & Shetland Ferries Ltd

Last reported at 2017-Jan-22 01:32 UTC. Time now 2017-Jan-22 01:49 UTC.
Position N 58°58' W 003°18'.

Length 112 m; draft 4.2 m.

Type: Passenger vessel. MMSI: 235449000.

Date/timePositionNaut miles runAvg speedWind from/ knotsBaromVisibWave heightAir tempDewpointWater temp
2017-Jan-22 01:32N 58°58' W 003°18'0 0.0
2017-Jan-22 00:32N 58°58' W 003°18'0 0.0
2017-Jan-21 23:32N 58°58' W 003°18'0 0.0
2017-Jan-21 22:32N 58°58' W 003°18'0 0.0
2017-Jan-21 21:32N 58°58' W 003°18'0 0.0
2017-Jan-21 20:32N 58°58' W 003°18'1111.1
2017-Jan-21 19:33N 58°49' W 003°29'1212.1
2017-Jan-21 18:33N 58°37' W 003°32'1010.3
2017-Jan-21 17:33N 58°47' W 003°29'1212.4
2017-Jan-21 16:33N 58°58' W 003°18'0 0.0
2017-Jan-21 15:31N 58°58' W 003°18'0 0.0
2017-Jan-21 14:31N 58°58' W 003°18'0 0.0
2017-Jan-21 13:31N 58°58' W 003°18'1111.6
2017-Jan-21 12:33N 58°48' W 003°29'1211.2
2017-Jan-21 11:31N 58°37' W 003°32'0 0.0
2017-Jan-21 10:33N 58°37' W 003°32'1515.1
2017-Jan-21 09:33N 58°52' W 003°28'8 7.6
2017-Jan-21 08:29N 58°58' W 003°18'0 0.0
2017-Jan-21 07:29N 58°58' W 003°18'0 0.0
2017-Jan-21 06:29N 58°58' W 003°18'0 0.0
2017-Jan-21 05:29N 58°58' W 003°18'0 0.0
2017-Jan-21 04:29N 58°58' W 003°18'0 0.0
2017-Jan-21 03:32N 58°58' W 003°18'0 0.0
2017-Jan-21 02:29N 58°58' W 003°18'0 0.0
2017-Jan-21 01:32N 58°58' W 003°18'0 0.0
2017-Jan-21 00:29N 58°58' W 003°18'0 0.0
2017-Jan-20 23:32N 58°58' W 003°18'0 0.0
2017-Jan-20 22:29N 58°58' W 003°18'0 0.0
2017-Jan-20 21:29N 58°58' W 003°18'0 0.0
2017-Jan-20 20:33N 58°58' W 003°18'1111.2
2017-Jan-20 19:33N 58°48' W 003°28'1211.7
2017-Jan-20 18:33N 58°37' W 003°32'1010.3
2017-Jan-20 17:33N 58°47' W 003°29'1312.5
2017-Jan-20 16:33N 58°58' W 003°18'0 0.0
2017-Jan-20 15:33N 58°58' W 003°18'0 0.0
2017-Jan-20 14:33N 58°58' W 003°18'0 0.0
2017-Jan-20 13:33N 58°58' W 003°18'0 0.0
2017-Jan-20 12:33N 58°58' W 003°18'0 0.0
2017-Jan-20 11:24N 58°58' W 003°18'0 0.0
2017-Jan-20 10:30N 58°58' W 003°18'7 7.3
2017-Jan-20 09:33N 58°53' W 003°27'1716.5
2017-Jan-20 08:33N 58°37' W 003°32'6 6.3
2017-Jan-20 07:33N 58°43' W 003°30'1615.8
2017-Jan-20 06:33N 58°57' W 003°17'1 0.8
2017-Jan-20 05:33N 58°58' W 003°18'0 0.0
2017-Jan-20 04:33N 58°58' W 003°18'0 0.0
2017-Jan-20 03:33N 58°58' W 003°18'0 0.0
2017-Jan-20 02:33N 58°58' W 003°18'0 0.0
2017-Jan-20 01:33N 58°58' W 003°18'0 0.0
2017-Jan-20 00:33N 58°58' W 003°18'0 0.0
2017-Jan-19 23:33N 58°58' W 003°18'0 0.0
2017-Jan-19 22:33N 58°58' W 003°18'0 0.0
2017-Jan-19 21:33N 58°58' W 003°18'0 0.0
2017-Jan-19 20:33N 58°58' W 003°18'1111.2
2017-Jan-19 19:33N 58°48' W 003°29'1211.7
2017-Jan-19 18:33N 58°37' W 003°32'1111.1
2017-Jan-19 17:33N 58°48' W 003°29'1211.8
2017-Jan-19 16:33N 58°58' W 003°18'0 0.0
2017-Jan-19 15:33N 58°58' W 003°18'0 0.0
2017-Jan-19 14:33N 58°58' W 003°18'0 0.0
2017-Jan-19 13:33N 58°58' W 003°18'0 0.0
2017-Jan-19 12:33N 58°58' W 003°18'0 0.0
2017-Jan-19 11:33N 58°58' W 003°18'0 0.0
2017-Jan-19 10:33N 58°58' W 003°18'8 8.2
2017-Jan-19 09:33N 58°51' W 003°28'1514.9
2017-Jan-19 08:33N 58°37' W 003°32'7 7.4
2017-Jan-19 07:33N 58°44' W 003°30'1514.8
2017-Jan-19 06:33N 58°57' W 003°18'0 0.5
2017-Jan-19 05:32N 58°58' W 003°18'0 0.0
2017-Jan-19 04:32N 58°58' W 003°18'0 0.0
2017-Jan-19 03:32N 58°58' W 003°18'0 0.0
2017-Jan-19 02:32N 58°58' W 003°18'0 0.0
2017-Jan-19 01:32N 58°58' W 003°18'0 0.0
2017-Jan-19 00:32N 58°58' W 003°18'0 0.0
2017-Jan-18 23:32N 58°58' W 003°18'0 0.0
2017-Jan-18 22:32N 58°58' W 003°18'0 0.0
2017-Jan-18 21:32N 58°58' W 003°18'0 0.0
2017-Jan-18 20:33N 58°58' W 003°18'1212.6
2017-Jan-18 19:33N 58°47' W 003°30'10 8.7
2017-Jan-18 18:22N 58°37' W 003°32'1114.0
2017-Jan-18 17:33N 58°48' W 003°29'1211.5
2017-Jan-18 16:33N 58°58' W 003°18'0 0.0
2017-Jan-18 15:31N 58°58' W 003°18'0 0.0
2017-Jan-18 14:31N 58°58' W 003°18'0 0.0
2017-Jan-18 13:25N 58°58' W 003°18'0 0.0
2017-Jan-18 12:31N 58°58' W 003°18'0 0.0
2017-Jan-18 11:31N 58°58' W 003°18'0 0.0
2017-Jan-18 10:31N 58°58' W 003°18'8 8.0
2017-Jan-18 09:33N 58°52' W 003°28'1615.7
2017-Jan-18 08:33N 58°37' W 003°32'7 7.0
2017-Jan-18 07:33N 58°44' W 003°30'1514.8
2017-Jan-18 06:33N 58°57' W 003°17'1 0.9
2017-Jan-18 05:31N 58°58' W 003°18'0 0.0
2017-Jan-18 04:31N 58°58' W 003°18'0 0.0
2017-Jan-18 03:31N 58°58' W 003°18'0 0.0
2017-Jan-18 02:31N 58°58' W 003°18'0 0.0
2017-Jan-18 01:31N 58°58' W 003°18'0 0.0
2017-Jan-18 00:31N 58°58' W 003°18'0 0.0
2017-Jan-17 23:31N 58°58' W 003°18'0 0.0
2017-Jan-17 22:31N 58°58' W 003°18'0 0.0
2017-Jan-17 21:31N 58°58' W 003°18'0 0.0
2017-Jan-17 20:31N 58°58' W 003°18'1212.4
2017-Jan-17 19:33N 58°47' W 003°29'1110.9
2017-Jan-17 18:33N 58°37' W 003°32'1211.7
2017-Jan-17 17:33N 58°48' W 003°29'1111.1
2017-Jan-17 16:33N 58°58' W 003°18'0 0.0
2017-Jan-17 15:29N 58°58' W 003°18'0 0.0
2017-Jan-17 14:32N 58°58' W 003°18'0 0.0
2017-Jan-17 13:32N 58°58' W 003°18'0 0.0
2017-Jan-17 12:32N 58°58' W 003°18'0 0.0
2017-Jan-17 11:32N 58°58' W 003°18'0 0.0
2017-Jan-17 10:32N 58°58' W 003°18'8 7.7
2017-Jan-17 09:33N 58°52' W 003°28'1615.8
2017-Jan-17 08:33N 58°37' W 003°32'6 6.0
2017-Jan-17 07:33N 58°43' W 003°30'1615.8
2017-Jan-17 06:34N 58°57' W 003°17'1 0.9
2017-Jan-17 05:32N 58°58' W 003°18'0 0.0
2017-Jan-17 04:32N 58°58' W 003°18'0 0.0
2017-Jan-17 03:32N 58°58' W 003°18'0 0.0
2017-Jan-17 02:32N 58°58' W 003°18'0 0.0
2017-Jan-17 01:32N 58°58' W 003°18'0 0.0
2017-Jan-17 00:32N 58°58' W 003°18'0 0.0
2017-Jan-16 23:32N 58°58' W 003°18'0 0.0
2017-Jan-16 22:32N 58°58' W 003°18'0 0.0
2017-Jan-16 21:32N 58°58' W 003°18'0 0.0
2017-Jan-16 20:33N 58°58' W 003°18'1313.0
2017-Jan-16 19:33N 58°46' W 003°29'10 7.8
2017-Jan-16 18:17N 58°37' W 003°32'1114.5
2017-Jan-16 17:33N 58°47' W 003°29'1212.2
2017-Jan-16 16:33N 58°58' W 003°18'0 0.0
2017-Jan-16 15:33N 58°58' W 003°18'0 0.0
2017-Jan-16 14:30N 58°58' W 003°18'0 0.0
2017-Jan-16 13:30N 58°58' W 003°18'0 0.0
2017-Jan-16 12:33N 58°58' W 003°18'0 0.0
2017-Jan-16 11:29N 58°58' W 003°18'0 0.0
2017-Jan-16 10:32N 58°58' W 003°18'7 7.6
2017-Jan-16 09:33N 58°53' W 003°28'1616.0
2017-Jan-16 08:33N 58°37' W 003°32'6 6.4
2017-Jan-16 07:33N 58°43' W 003°30'1515.5
2017-Jan-16 06:34N 58°57' W 003°17'1 0.9
2017-Jan-16 05:32N 58°58' W 003°18'0 0.0
2017-Jan-16 04:32N 58°58' W 003°18'0 0.0
2017-Jan-16 03:32N 58°58' W 003°18'0 0.0
2017-Jan-16 02:29N 58°58' W 003°18'0 0.0
2017-Jan-16 01:32N 58°58' W 003°18'0 0.0
2017-Jan-16 00:32N 58°58' W 003°18'0 0.0
2017-Jan-15 23:32N 58°58' W 003°18'0 0.0
2017-Jan-15 22:32N 58°58' W 003°18'0 0.0
2017-Jan-15 21:32N 58°58' W 003°18'0 0.0
2017-Jan-15 20:32N 58°58' W 003°18'1211.8
2017-Jan-15 19:33N 58°48' W 003°29'1111.4
2017-Jan-15 18:33N 58°37' W 003°32'1111.1
2017-Jan-15 17:33N 58°48' W 003°29'1211.7
2017-Jan-15 16:33N 58°58' W 003°18'0 0.0
2017-Jan-15 15:33N 58°58' W 003°18'0 0.0
2017-Jan-15 14:33N 58°58' W 003°18'0 0.0
2017-Jan-15 13:33N 58°58' W 003°18'1111.2
2017-Jan-15 12:34N 58°48' W 003°29'1211.7
2017-Jan-15 11:33N 58°37' W 003°32'0 0.0
2017-Jan-15 10:33N 58°37' W 003°32'1616.0
2017-Jan-15 09:34N 58°52' W 003°28'8 7.4
2017-Jan-15 08:33N 58°58' W 003°18'0 0.0
2017-Jan-15 07:33N 58°58' W 003°18'0 0.0
2017-Jan-15 06:30N 58°58' W 003°18'0 0.0
2017-Jan-15 05:33N 58°58' W 003°18'0 0.0
2017-Jan-15 04:33N 58°58' W 003°18'0 0.0
2017-Jan-15 03:30N 58°58' W 003°18'0 0.0
2017-Jan-15 02:33N 58°58' W 003°18'0 0.0
2017-Jan-15 01:33N 58°58' W 003°18'0 0.0
2017-Jan-15 00:33N 58°58' W 003°18'0 0.0
2017-Jan-14 23:33N 58°58' W 003°18'0 0.0
2017-Jan-14 22:33N 58°58' W 003°18'0 0.0
2017-Jan-14 21:33N 58°58' W 003°18'0 0.0
2017-Jan-14 20:33N 58°58' W 003°18'1212.0
2017-Jan-14 19:33N 58°47' W 003°29'1110.8
2017-Jan-14 18:33N 58°37' W 003°32'1111.1
2017-Jan-14 17:33N 58°48' W 003°29'1211.8
2017-Jan-14 16:33N 58°58' W 003°18'0 0.0
2017-Jan-14 15:31N 58°58' W 003°18'0 0.0
2017-Jan-14 14:31N 58°58' W 003°18'1 1.1
2017-Jan-14 13:33N 58°57' W 003°18'1514.7
2017-Jan-14 12:33N 58°43' W 003°30'7 6.7
2017-Jan-14 11:31N 58°37' W 003°32'0 0.0
2017-Jan-14 10:32N 58°37' W 003°32'1515.8
2017-Jan-14 09:33N 58°52' W 003°29'8 7.7
2017-Jan-14 08:31N 58°58' W 003°18'0 0.0
2017-Jan-14 07:31N 58°58' W 003°18'0 0.0
2017-Jan-14 06:31N 58°58' W 003°18'0 0.0
2017-Jan-14 05:31N 58°58' W 003°18'0 0.0
2017-Jan-14 04:31N 58°58' W 003°18'0 0.0
2017-Jan-14 03:31N 58°58' W 003°18'0 0.0
2017-Jan-13 23:31N 58°58' W 003°18'0 0.0
2017-Jan-13 22:31N 58°58' W 003°18'0 0.0
2017-Jan-13 21:31N 58°58' W 003°18'0 0.0
2017-Jan-13 20:31N 58°58' W 003°18'0 0.0
2017-Jan-13 19:31N 58°58' W 003°18'0 0.0
2017-Jan-13 18:28N 58°58' W 003°18'0 0.0
2017-Jan-13 17:31N 58°58' W 003°18'0 0.0
2017-Jan-13 16:31N 58°58' W 003°18'0 0.0
2017-Jan-13 15:31N 58°58' W 003°18'0 0.0
2017-Jan-13 14:28N 58°58' W 003°18'0 0.0
2017-Jan-13 13:31N 58°58' W 003°18'0 0.0
2017-Jan-13 12:31N 58°58' W 003°18'0 0.0
2017-Jan-13 11:31N 58°58' W 003°18'0 0.0
2017-Jan-13 10:31N 58°58' W 003°18'0 0.0
2017-Jan-13 09:31N 58°58' W 003°18'0 0.0
2017-Jan-13 08:31N 58°58' W 003°18'0 0.0
2017-Jan-13 07:31N 58°58' W 003°18'0 0.0
2017-Jan-13 06:31N 58°58' W 003°18'0 0.0
2017-Jan-13 05:31N 58°58' W 003°18'0 0.0
2017-Jan-13 04:31N 58°58' W 003°18'0 0.0
2017-Jan-13 03:25N 58°58' W 003°18'0 0.0
2017-Jan-13 02:31N 58°58' W 003°18'0 0.0
2017-Jan-13 01:31N 58°58' W 003°18'0 0.0
2017-Jan-13 00:31N 58°58' W 003°18'0 0.0
2017-Jan-12 23:31N 58°58' W 003°18'0 0.0
2017-Jan-12 22:31N 58°58' W 003°18'0 0.0
2017-Jan-12 21:31N 58°58' W 003°18'0 0.0
2017-Jan-12 20:31N 58°58' W 003°18'0 0.0
2017-Jan-12 19:31N 58°58' W 003°18'0 0.0
2017-Jan-12 18:31N 58°58' W 003°18'0 0.0
2017-Jan-12 17:31N 58°58' W 003°18'0 0.0
2017-Jan-12 16:31N 58°58' W 003°18'0 0.0
2017-Jan-12 15:31N 58°58' W 003°18'5 5.5
2017-Jan-12 14:33N 58°55' W 003°26'1615.5
2017-Jan-12 13:33N 58°39' W 003°31'3 2.8
2017-Jan-12 12:33N 58°37' W 003°32'3 3.3
2017-Jan-12 11:33N 58°40' W 003°29'1414.2
2017-Jan-12 10:33N 58°50' W 003°11'9 7.9
2017-Jan-12 09:29N 58°58' W 003°18'0 0.0
2017-Jan-12 08:29N 58°58' W 003°18'0 0.0
2017-Jan-12 07:29N 58°58' W 003°18'0 0.0
2017-Jan-12 06:32N 58°58' W 003°18'0 0.0
2017-Jan-12 05:32N 58°58' W 003°18'0 0.0
2017-Jan-12 04:32N 58°58' W 003°18'0 0.0
2017-Jan-12 03:32N 58°58' W 003°18'0 0.0
2017-Jan-12 02:32N 58°58' W 003°18'0 0.0
2017-Jan-12 01:32N 58°58' W 003°18'  
Track history (hours):
 
Tides and Currents Weather Stations Pressure Air Temp Water Temp Dewpoint Dewpoint Depression Visibility Wind Speed Wind Dir Waves Ship Positions

Hamnavoe

Operator: NorthLink Orkey & Shetland Ferries Ltd

Last reported at 2017-Jan-22 01:32 UTC. Time now 2017-Jan-22 01:49 UTC.
Position N 58°58' W 003°18'.

Length 112 m; draft 4.2 m.

Type: Passenger vessel. MMSI: 235449000.

Date/timePositionNaut miles runAvg speedWind from/ knotsBaromVisibWave heightAir tempDewpointWater temp
2017-Jan-22 01:32N 58°58' W 003°18'0 0.0
2017-Jan-22 00:32N 58°58' W 003°18'0 0.0
2017-Jan-21 23:32N 58°58' W 003°18'0 0.0
2017-Jan-21 22:32N 58°58' W 003°18'0 0.0
2017-Jan-21 21:32N 58°58' W 003°18'0 0.0
2017-Jan-21 20:32N 58°58' W 003°18'1111.1
2017-Jan-21 19:33N 58°49' W 003°29'1212.1
2017-Jan-21 18:33N 58°37' W 003°32'1010.3
2017-Jan-21 17:33N 58°47' W 003°29'1212.4
2017-Jan-21 16:33N 58°58' W 003°18'0 0.0
2017-Jan-21 15:31N 58°58' W 003°18'0 0.0
2017-Jan-21 14:31N 58°58' W 003°18'0 0.0
2017-Jan-21 13:31N 58°58' W 003°18'1111.6
2017-Jan-21 12:33N 58°48' W 003°29'1211.2
2017-Jan-21 11:31N 58°37' W 003°32'0 0.0
2017-Jan-21 10:33N 58°37' W 003°32'1515.1
2017-Jan-21 09:33N 58°52' W 003°28'8 7.6
2017-Jan-21 08:29N 58°58' W 003°18'0 0.0
2017-Jan-21 07:29N 58°58' W 003°18'0 0.0
2017-Jan-21 06:29N 58°58' W 003°18'0 0.0
2017-Jan-21 05:29N 58°58' W 003°18'0 0.0
2017-Jan-21 04:29N 58°58' W 003°18'0 0.0
2017-Jan-21 03:32N 58°58' W 003°18'0 0.0
2017-Jan-21 02:29N 58°58' W 003°18'0 0.0
2017-Jan-21 01:32N 58°58' W 003°18'0 0.0
2017-Jan-21 00:29N 58°58' W 003°18'0 0.0
2017-Jan-20 23:32N 58°58' W 003°18'0 0.0
2017-Jan-20 22:29N 58°58' W 003°18'0 0.0
2017-Jan-20 21:29N 58°58' W 003°18'0 0.0
2017-Jan-20 20:33N 58°58' W 003°18'1111.2
2017-Jan-20 19:33N 58°48' W 003°28'1211.7
2017-Jan-20 18:33N 58°37' W 003°32'1010.3
2017-Jan-20 17:33N 58°47' W 003°29'1312.5
2017-Jan-20 16:33N 58°58' W 003°18'0 0.0
2017-Jan-20 15:33N 58°58' W 003°18'0 0.0
2017-Jan-20 14:33N 58°58' W 003°18'0 0.0
2017-Jan-20 13:33N 58°58' W 003°18'0 0.0
2017-Jan-20 12:33N 58°58' W 003°18'0 0.0
2017-Jan-20 11:24N 58°58' W 003°18'0 0.0
2017-Jan-20 10:30N 58°58' W 003°18'7 7.3
2017-Jan-20 09:33N 58°53' W 003°27'1716.5
2017-Jan-20 08:33N 58°37' W 003°32'6 6.3
2017-Jan-20 07:33N 58°43' W 003°30'1615.8
2017-Jan-20 06:33N 58°57' W 003°17'1 0.8
2017-Jan-20 05:33N 58°58' W 003°18'0 0.0
2017-Jan-20 04:33N 58°58' W 003°18'0 0.0
2017-Jan-20 03:33N 58°58' W 003°18'0 0.0
2017-Jan-20 02:33N 58°58' W 003°18'0 0.0
2017-Jan-20 01:33N 58°58' W 003°18'0 0.0
2017-Jan-20 00:33N 58°58' W 003°18'0 0.0
2017-Jan-19 23:33N 58°58' W 003°18'0 0.0
2017-Jan-19 22:33N 58°58' W 003°18'0 0.0
2017-Jan-19 21:33N 58°58' W 003°18'0 0.0
2017-Jan-19 20:33N 58°58' W 003°18'1111.2
2017-Jan-19 19:33N 58°48' W 003°29'1211.7
2017-Jan-19 18:33N 58°37' W 003°32'1111.1
2017-Jan-19 17:33N 58°48' W 003°29'1211.8
2017-Jan-19 16:33N 58°58' W 003°18'0 0.0
2017-Jan-19 15:33N 58°58' W 003°18'0 0.0
2017-Jan-19 14:33N 58°58' W 003°18'0 0.0
2017-Jan-19 13:33N 58°58' W 003°18'0 0.0
2017-Jan-19 12:33N 58°58' W 003°18'0 0.0
2017-Jan-19 11:33N 58°58' W 003°18'0 0.0
2017-Jan-19 10:33N 58°58' W 003°18'8 8.2
2017-Jan-19 09:33N 58°51' W 003°28'1514.9
2017-Jan-19 08:33N 58°37' W 003°32'7 7.4
2017-Jan-19 07:33N 58°44' W 003°30'1514.8
2017-Jan-19 06:33N 58°57' W 003°18'0 0.5
2017-Jan-19 05:32N 58°58' W 003°18'0 0.0
2017-Jan-19 04:32N 58°58' W 003°18'0 0.0
2017-Jan-19 03:32N 58°58' W 003°18'0 0.0
2017-Jan-19 02:32N 58°58' W 003°18'0 0.0
2017-Jan-19 01:32N 58°58' W 003°18'0 0.0
2017-Jan-19 00:32N 58°58' W 003°18'0 0.0
2017-Jan-18 23:32N 58°58' W 003°18'0 0.0
2017-Jan-18 22:32N 58°58' W 003°18'0 0.0
2017-Jan-18 21:32N 58°58' W 003°18'0 0.0
2017-Jan-18 20:33N 58°58' W 003°18'1212.6
2017-Jan-18 19:33N 58°47' W 003°30'10 8.7
2017-Jan-18 18:22N 58°37' W 003°32'1114.0
2017-Jan-18 17:33N 58°48' W 003°29'1211.5
2017-Jan-18 16:33N 58°58' W 003°18'0 0.0
2017-Jan-18 15:31N 58°58' W 003°18'0 0.0
2017-Jan-18 14:31N 58°58' W 003°18'0 0.0
2017-Jan-18 13:25N 58°58' W 003°18'0 0.0
2017-Jan-18 12:31N 58°58' W 003°18'0 0.0
2017-Jan-18 11:31N 58°58' W 003°18'0 0.0
2017-Jan-18 10:31N 58°58' W 003°18'8 8.0
2017-Jan-18 09:33N 58°52' W 003°28'1615.7
2017-Jan-18 08:33N 58°37' W 003°32'7 7.0
2017-Jan-18 07:33N 58°44' W 003°30'1514.8
2017-Jan-18 06:33N 58°57' W 003°17'1 0.9
2017-Jan-18 05:31N 58°58' W 003°18'0 0.0
2017-Jan-18 04:31N 58°58' W 003°18'0 0.0
2017-Jan-18 03:31N 58°58' W 003°18'0 0.0
2017-Jan-18 02:31N 58°58' W 003°18'0 0.0
2017-Jan-18 01:31N 58°58' W 003°18'0 0.0
2017-Jan-18 00:31N 58°58' W 003°18'0 0.0
2017-Jan-17 23:31N 58°58' W 003°18'0 0.0
2017-Jan-17 22:31N 58°58' W 003°18'0 0.0
2017-Jan-17 21:31N 58°58' W 003°18'0 0.0
2017-Jan-17 20:31N 58°58' W 003°18'1212.4
2017-Jan-17 19:33N 58°47' W 003°29'1110.9
2017-Jan-17 18:33N 58°37' W 003°32'1211.7
2017-Jan-17 17:33N 58°48' W 003°29'1111.1
2017-Jan-17 16:33N 58°58' W 003°18'0 0.0
2017-Jan-17 15:29N 58°58' W 003°18'0 0.0
2017-Jan-17 14:32N 58°58' W 003°18'0 0.0
2017-Jan-17 13:32N 58°58' W 003°18'0 0.0
2017-Jan-17 12:32N 58°58' W 003°18'0 0.0
2017-Jan-17 11:32N 58°58' W 003°18'0 0.0
2017-Jan-17 10:32N 58°58' W 003°18'8 7.7
2017-Jan-17 09:33N 58°52' W 003°28'1615.8
2017-Jan-17 08:33N 58°37' W 003°32'6 6.0
2017-Jan-17 07:33N 58°43' W 003°30'1615.8
2017-Jan-17 06:34N 58°57' W 003°17'1 0.9
2017-Jan-17 05:32N 58°58' W 003°18'0 0.0
2017-Jan-17 04:32N 58°58' W 003°18'0 0.0
2017-Jan-17 03:32N 58°58' W 003°18'0 0.0
2017-Jan-17 02:32N 58°58' W 003°18'0 0.0
2017-Jan-17 01:32N 58°58' W 003°18'0 0.0
2017-Jan-17 00:32N 58°58' W 003°18'0 0.0
2017-Jan-16 23:32N 58°58' W 003°18'0 0.0
2017-Jan-16 22:32N 58°58' W 003°18'0 0.0
2017-Jan-16 21:32N 58°58' W 003°18'0 0.0
2017-Jan-16 20:33N 58°58' W 003°18'1313.0
2017-Jan-16 19:33N 58°46' W 003°29'10 7.8
2017-Jan-16 18:17N 58°37' W 003°32'1114.5
2017-Jan-16 17:33N 58°47' W 003°29'1212.2
2017-Jan-16 16:33N 58°58' W 003°18'0 0.0
2017-Jan-16 15:33N 58°58' W 003°18'0 0.0
2017-Jan-16 14:30N 58°58' W 003°18'0 0.0
2017-Jan-16 13:30N 58°58' W 003°18'0 0.0
2017-Jan-16 12:33N 58°58' W 003°18'0 0.0
2017-Jan-16 11:29N 58°58' W 003°18'0 0.0
2017-Jan-16 10:32N 58°58' W 003°18'7 7.6
2017-Jan-16 09:33N 58°53' W 003°28'1616.0
2017-Jan-16 08:33N 58°37' W 003°32'6 6.4
2017-Jan-16 07:33N 58°43' W 003°30'1515.5
2017-Jan-16 06:34N 58°57' W 003°17'1 0.9
2017-Jan-16 05:32N 58°58' W 003°18'0 0.0
2017-Jan-16 04:32N 58°58' W 003°18'0 0.0
2017-Jan-16 03:32N 58°58' W 003°18'0 0.0
2017-Jan-16 02:29N 58°58' W 003°18'0 0.0
2017-Jan-16 01:32N 58°58' W 003°18'0 0.0
2017-Jan-16 00:32N 58°58' W 003°18'0 0.0
2017-Jan-15 23:32N 58°58' W 003°18'0 0.0
2017-Jan-15 22:32N 58°58' W 003°18'0 0.0
2017-Jan-15 21:32N 58°58' W 003°18'0 0.0
2017-Jan-15 20:32N 58°58' W 003°18'1211.8
2017-Jan-15 19:33N 58°48' W 003°29'1111.4
2017-Jan-15 18:33N 58°37' W 003°32'1111.1
2017-Jan-15 17:33N 58°48' W 003°29'1211.7
2017-Jan-15 16:33N 58°58' W 003°18'0 0.0
2017-Jan-15 15:33N 58°58' W 003°18'0 0.0
2017-Jan-15 14:33N 58°58' W 003°18'0 0.0
2017-Jan-15 13:33N 58°58' W 003°18'1111.2
2017-Jan-15 12:34N 58°48' W 003°29'1211.7
2017-Jan-15 11:33N 58°37' W 003°32'0 0.0
2017-Jan-15 10:33N 58°37' W 003°32'1616.0
2017-Jan-15 09:34N 58°52' W 003°28'8 7.4
2017-Jan-15 08:33N 58°58' W 003°18'0 0.0
2017-Jan-15 07:33N 58°58' W 003°18'0 0.0
2017-Jan-15 06:30N 58°58' W 003°18'0 0.0
2017-Jan-15 05:33N 58°58' W 003°18'0 0.0
2017-Jan-15 04:33N 58°58' W 003°18'0 0.0
2017-Jan-15 03:30N 58°58' W 003°18'0 0.0
2017-Jan-15 02:33N 58°58' W 003°18'0 0.0
2017-Jan-15 01:33N 58°58' W 003°18'0 0.0
2017-Jan-15 00:33N 58°58' W 003°18'0 0.0
2017-Jan-14 23:33N 58°58' W 003°18'0 0.0
2017-Jan-14 22:33N 58°58' W 003°18'0 0.0
2017-Jan-14 21:33N 58°58' W 003°18'0 0.0
2017-Jan-14 20:33N 58°58' W 003°18'1212.0
2017-Jan-14 19:33N 58°47' W 003°29'1110.8
2017-Jan-14 18:33N 58°37' W 003°32'1111.1
2017-Jan-14 17:33N 58°48' W 003°29'1211.8
2017-Jan-14 16:33N 58°58' W 003°18'0 0.0
2017-Jan-14 15:31N 58°58' W 003°18'0 0.0
2017-Jan-14 14:31N 58°58' W 003°18'1 1.1
2017-Jan-14 13:33N 58°57' W 003°18'1514.7
2017-Jan-14 12:33N 58°43' W 003°30'7 6.7
2017-Jan-14 11:31N 58°37' W 003°32'0 0.0
2017-Jan-14 10:32N 58°37' W 003°32'1515.8
2017-Jan-14 09:33N 58°52' W 003°29'8 7.7
2017-Jan-14 08:31N 58°58' W 003°18'0 0.0
2017-Jan-14 07:31N 58°58' W 003°18'0 0.0
2017-Jan-14 06:31N 58°58' W 003°18'0 0.0
2017-Jan-14 05:31N 58°58' W 003°18'0 0.0
2017-Jan-14 04:31N 58°58' W 003°18'0 0.0
2017-Jan-14 03:31N 58°58' W 003°18'0 0.0
2017-Jan-13 23:31N 58°58' W 003°18'0 0.0
2017-Jan-13 22:31N 58°58' W 003°18'0 0.0
2017-Jan-13 21:31N 58°58' W 003°18'0 0.0
2017-Jan-13 20:31N 58°58' W 003°18'0 0.0
2017-Jan-13 19:31N 58°58' W 003°18'0 0.0
2017-Jan-13 18:28N 58°58' W 003°18'0 0.0
2017-Jan-13 17:31N 58°58' W 003°18'0 0.0
2017-Jan-13 16:31N 58°58' W 003°18'0 0.0
2017-Jan-13 15:31N 58°58' W 003°18'0 0.0
2017-Jan-13 14:28N 58°58' W 003°18'0 0.0
2017-Jan-13 13:31N 58°58' W 003°18'0 0.0
2017-Jan-13 12:31N 58°58' W 003°18'0 0.0
2017-Jan-13 11:31N 58°58' W 003°18'0 0.0
2017-Jan-13 10:31N 58°58' W 003°18'0 0.0
2017-Jan-13 09:31N 58°58' W 003°18'0 0.0
2017-Jan-13 08:31N 58°58' W 003°18'0 0.0
2017-Jan-13 07:31N 58°58' W 003°18'0 0.0
2017-Jan-13 06:31N 58°58' W 003°18'0 0.0
2017-Jan-13 05:31N 58°58' W 003°18'0 0.0
2017-Jan-13 04:31N 58°58' W 003°18'0 0.0
2017-Jan-13 03:25N 58°58' W 003°18'0 0.0
2017-Jan-13 02:31N 58°58' W 003°18'0 0.0
2017-Jan-13 01:31N 58°58' W 003°18'0 0.0
2017-Jan-13 00:31N 58°58' W 003°18'0 0.0
2017-Jan-12 23:31N 58°58' W 003°18'0 0.0
2017-Jan-12 22:31N 58°58' W 003°18'0 0.0
2017-Jan-12 21:31N 58°58' W 003°18'0 0.0
2017-Jan-12 20:31N 58°58' W 003°18'0 0.0
2017-Jan-12 19:31N 58°58' W 003°18'0 0.0
2017-Jan-12 18:31N 58°58' W 003°18'0 0.0
2017-Jan-12 17:31N 58°58' W 003°18'0 0.0
2017-Jan-12 16:31N 58°58' W 003°18'0 0.0
2017-Jan-12 15:31N 58°58' W 003°18'5 5.5
2017-Jan-12 14:33N 58°55' W 003°26'1615.5
2017-Jan-12 13:33N 58°39' W 003°31'3 2.8
2017-Jan-12 12:33N 58°37' W 003°32'3 3.3
2017-Jan-12 11:33N 58°40' W 003°29'1414.2
2017-Jan-12 10:33N 58°50' W 003°11'9 7.9
2017-Jan-12 09:29N 58°58' W 003°18'0 0.0
2017-Jan-12 08:29N 58°58' W 003°18'0 0.0
2017-Jan-12 07:29N 58°58' W 003°18'0 0.0
2017-Jan-12 06:32N 58°58' W 003°18'0 0.0
2017-Jan-12 05:32N 58°58' W 003°18'0 0.0
2017-Jan-12 04:32N 58°58' W 003°18'0 0.0
2017-Jan-12 03:32N 58°58' W 003°18'0 0.0
2017-Jan-12 02:32N 58°58' W 003°18'0 0.0
2017-Jan-12 01:32N 58°58' W 003°18'  

Dump ship's entire track history